Aérodrome :
LOGIN :

S'inscrire | Disclaimer

   EN    FR    IT 

 










Légende :    VFR   VFR Marginal   IFR   IFR Intensif   IFR Très Intensif
Visi : 
Plafond : 
>= 8 km
>= 3000ft
5 à 8 km
1000 à 3000 ft
1500m à 5 km
500 à 1000 ft
800 à 1500m
200 à 500 ft
< 800m
< 200 ft
Symboles :   Orages  Brouillard  Fortes neiges  Fortes précipitations  Vent > 20 kt
SIGMETs :   Divers  Orages  Givrage  Turbulence  Onde Orograph.  Cendres Volcan.







- Altitude de l'aérodrome : 659 ft
- Code IATA : LYN
- Voir les cartes d'approche


LFLY - Lyon Bron

DERNIER METAR :
  • 241230Z AUTO 35008KT 310V040 9999 FEW054 24/11 Q1019 NOSIG

METARs EXPIRÉS :
  • 241200Z AUTO 02008KT 310V060 9999 FEW050 24/10 Q1019 NOSIG
  • 241130Z AUTO 36007KT 290V060 CAVOK 23/11 Q1019 NOSIG
  • 241100Z AUTO 35008KT 320V040 CAVOK 23/10 Q1020 NOSIG
  • 241030Z AUTO 01006KT 310V090 CAVOK 22/11 Q1020 NOSIG
  • 241000Z AUTO 02006KT 310V060 CAVOK 21/10 Q1020 NOSIG

TAF TAF LFLY
Valide du 24 à 12h jusqu'au 25 à 12h UTC


241100Z 2412/2512 36010KT CAVOK
TEMPO 2509/2512 36012G25KT
ATIS : +33 4 72 15 87 96
Pas de NOTAMs connus pour ce terrain.
1 SIGMET publié pour la FIR Marseille (LFMM) :
 
Orages noyés dans la masse
LFMM SIGMET 1 VALID 241220/241500 LFPW
LFMM MARSEILLE FIR/UIR EMBD TS FCST WI N4130 E00845 - N4245 E00845 - N4245 E00930 - N4130 E00915 - N4130 E00845 TOP FL350 STNR NC=



MET'MAP, la Météo Aéronautique d'un coup d'oeil ! - Copyright ORBIFLY Décembre 2007 - Disclaimer

ORBIFLY MET'MAP TEAM :

Programmation & Développement : Alexandra Zaïnal
Conception & Développement : Baudouin d'Aumeries
Co-Programmation & Développement : Marc-Olivier Méhu
Soutien technique & logistique : Manuel Goepfert

Contact : metmap@orbifly.com




SOURCES & CREDITS :

   NOAA